sensor_id;sensor_type;location;lat;lon;timestamp;pressure;altitude;pressure_sealevel;temperature
20103;BMP180;10210;52.284;9.892;2024-01-15T00:01:58;98608.00;;;5.80
20103;BMP180;10210;52.284;9.892;2024-01-15T00:04:24;98613.00;;;5.90
20103;BMP180;10210;52.284;9.892;2024-01-15T00:06:50;98592.00;;;5.80
20103;BMP180;10210;52.284;9.892;2024-01-15T00:09:15;98601.00;;;5.80
20103;BMP180;10210;52.284;9.892;2024-01-15T00:11:42;98592.00;;;5.80
20103;BMP180;10210;52.284;9.892;2024-01-15T00:14:09;98602.00;;;5.80
20103;BMP180;10210;52.284;9.892;2024-01-15T00:16:34;98584.00;;;5.80
20103;BMP180;10210;52.284;9.892;2024-01-15T00:19:00;98594.00;;;5.80
20103;BMP180;10210;52.284;9.892;2024-01-15T00:21:26;98599.00;;;5.80
20103;BMP180;10210;52.284;9.892;2024-01-15T00:23:53;98583.00;;;5.80
20103;BMP180;10210;52.284;9.892;2024-01-15T00:26:19;98593.00;;;5.80
20103;BMP180;10210;52.284;9.892;2024-01-15T00:28:44;98588.00;;;5.80
20103;BMP180;10210;52.284;9.892;2024-01-15T00:31:10;98590.00;;;5.80
20103;BMP180;10210;52.284;9.892;2024-01-15T00:33:35;98592.00;;;5.80
20103;BMP180;10210;52.284;9.892;2024-01-15T00:36:01;98595.00;;;5.80
20103;BMP180;10210;52.284;9.892;2024-01-15T00:38:27;98589.00;;;5.80
20103;BMP180;10210;52.284;9.892;2024-01-15T00:40:52;98596.00;;;5.80
20103;BMP180;10210;52.284;9.892;2024-01-15T00:43:18;98600.00;;;5.80
20103;BMP180;10210;52.284;9.892;2024-01-15T00:45:44;98593.00;;;5.80
20103;BMP180;10210;52.284;9.892;2024-01-15T00:48:10;98587.00;;;5.70
20103;BMP180;10210;52.284;9.892;2024-01-15T00:50:36;98565.00;;;5.70
20103;BMP180;10210;52.284;9.892;2024-01-15T00:53:02;98565.00;;;5.70
20103;BMP180;10210;52.284;9.892;2024-01-15T00:55:28;98554.00;;;5.70
20103;BMP180;10210;52.284;9.892;2024-01-15T00:57:54;98563.00;;;5.70
20103;BMP180;10210;52.284;9.892;2024-01-15T01:00:21;98569.00;;;5.70
20103;BMP180;10210;52.284;9.892;2024-01-15T01:02:46;98568.00;;;5.70
20103;BMP180;10210;52.284;9.892;2024-01-15T01:05:12;98575.00;;;5.70
20103;BMP180;10210;52.284;9.892;2024-01-15T01:07:38;98553.00;;;5.70
20103;BMP180;10210;52.284;9.892;2024-01-15T01:10:05;98560.00;;;5.70
20103;BMP180;10210;52.284;9.892;2024-01-15T01:12:30;98550.00;;;5.70
20103;BMP180;10210;52.284;9.892;2024-01-15T01:14:56;98551.00;;;5.70
20103;BMP180;10210;52.284;9.892;2024-01-15T01:17:22;98550.00;;;5.70
20103;BMP180;10210;52.284;9.892;2024-01-15T01:19:50;98557.00;;;5.70
20103;BMP180;10210;52.284;9.892;2024-01-15T01:22:15;98563.00;;;5.60
20103;BMP180;10210;52.284;9.892;2024-01-15T01:24:41;98555.00;;;5.60
20103;BMP180;10210;52.284;9.892;2024-01-15T01:27:07;98552.00;;;5.60
20103;BMP180;10210;52.284;9.892;2024-01-15T01:29:32;98551.00;;;5.60
20103;BMP180;10210;52.284;9.892;2024-01-15T01:31:58;98542.00;;;5.60
20103;BMP180;10210;52.284;9.892;2024-01-15T01:34:23;98549.00;;;5.60
20103;BMP180;10210;52.284;9.892;2024-01-15T01:36:50;98542.00;;;5.60
20103;BMP180;10210;52.284;9.892;2024-01-15T01:39:15;98542.00;;;5.60
20103;BMP180;10210;52.284;9.892;2024-01-15T01:41:41;98538.00;;;5.60
20103;BMP180;10210;52.284;9.892;2024-01-15T01:44:07;98546.00;;;5.60
20103;BMP180;10210;52.284;9.892;2024-01-15T01:46:33;98546.00;;;5.60
20103;BMP180;10210;52.284;9.892;2024-01-15T01:49:00;98525.00;;;5.60
20103;BMP180;10210;52.284;9.892;2024-01-15T01:51:31;98528.00;;;5.60
20103;BMP180;10210;52.284;9.892;2024-01-15T01:53:57;98525.00;;;5.60
20103;BMP180;10210;52.284;9.892;2024-01-15T01:56:23;98536.00;;;5.60
20103;BMP180;10210;52.284;9.892;2024-01-15T01:58:49;98520.00;;;5.60
20103;BMP180;10210;52.284;9.892;2024-01-15T02:01:16;98530.00;;;5.60
20103;BMP180;10210;52.284;9.892;2024-01-15T02:03:43;98529.00;;;5.60
20103;BMP180;10210;52.284;9.892;2024-01-15T02:06:09;98527.00;;;5.60
20103;BMP180;10210;52.284;9.892;2024-01-15T02:08:35;98513.00;;;5.60
20103;BMP180;10210;52.284;9.892;2024-01-15T02:11:01;98530.00;;;5.60
20103;BMP180;10210;52.284;9.892;2024-01-15T02:13:27;98526.00;;;5.60
20103;BMP180;10210;52.284;9.892;2024-01-15T02:15:52;98513.00;;;5.70
20103;BMP180;10210;52.284;9.892;2024-01-15T02:18:18;98502.00;;;5.70
20103;BMP180;10210;52.284;9.892;2024-01-15T02:20:43;98512.00;;;5.70
20103;BMP180;10210;52.284;9.892;2024-01-15T02:23:16;98501.00;;;5.70
20103;BMP180;10210;52.284;9.892;2024-01-15T02:25:46;98502.00;;;5.70
20103;BMP180;10210;52.284;9.892;2024-01-15T02:28:17;98515.00;;;5.70
20103;BMP180;10210;52.284;9.892;2024-01-15T02:30:43;98498.00;;;5.80
20103;BMP180;10210;52.284;9.892;2024-01-15T02:33:11;98494.00;;;5.80
20103;BMP180;10210;52.284;9.892;2024-01-15T02:35:37;98497.00;;;5.80
20103;BMP180;10210;52.284;9.892;2024-01-15T02:38:06;98492.00;;;5.80
20103;BMP180;10210;52.284;9.892;2024-01-15T02:40:32;98495.00;;;5.80
20103;BMP180;10210;52.284;9.892;2024-01-15T02:42:58;98502.00;;;5.80
20103;BMP180;10210;52.284;9.892;2024-01-15T02:45:24;98487.00;;;5.80
20103;BMP180;10210;52.284;9.892;2024-01-15T02:47:49;98502.00;;;5.90
20103;BMP180;10210;52.284;9.892;2024-01-15T02:50:16;98505.00;;;5.90
20103;BMP180;10210;52.284;9.892;2024-01-15T02:52:42;98506.00;;;5.90
20103;BMP180;10210;52.284;9.892;2024-01-15T02:55:08;98472.00;;;5.90
20103;BMP180;10210;52.284;9.892;2024-01-15T02:57:34;98488.00;;;5.90
20103;BMP180;10210;52.284;9.892;2024-01-15T03:00:00;98494.00;;;5.90
20103;BMP180;10210;52.284;9.892;2024-01-15T03:02:26;98499.00;;;5.90
20103;BMP180;10210;52.284;9.892;2024-01-15T03:04:52;98489.00;;;5.90
20103;BMP180;10210;52.284;9.892;2024-01-15T03:07:17;98495.00;;;5.90
20103;BMP180;10210;52.284;9.892;2024-01-15T03:09:43;98491.00;;;5.90
20103;BMP180;10210;52.284;9.892;2024-01-15T03:12:09;98491.00;;;5.90
20103;BMP180;10210;52.284;9.892;2024-01-15T03:14:35;98496.00;;;5.90
20103;BMP180;10210;52.284;9.892;2024-01-15T03:17:01;98483.00;;;5.90
20103;BMP180;10210;52.284;9.892;2024-01-15T03:19:27;98492.00;;;5.90
20103;BMP180;10210;52.284;9.892;2024-01-15T03:21:52;98489.00;;;5.90
20103;BMP180;10210;52.284;9.892;2024-01-15T03:24:18;98501.00;;;5.90
20103;BMP180;10210;52.284;9.892;2024-01-15T03:26:44;98490.00;;;5.90
20103;BMP180;10210;52.284;9.892;2024-01-15T03:29:09;98488.00;;;5.90
20103;BMP180;10210;52.284;9.892;2024-01-15T03:31:35;98492.00;;;5.90
20103;BMP180;10210;52.284;9.892;2024-01-15T03:34:01;98478.00;;;5.80
20103;BMP180;10210;52.284;9.892;2024-01-15T03:36:26;98487.00;;;5.90
20103;BMP180;10210;52.284;9.892;2024-01-15T03:38:52;98479.00;;;5.90
20103;BMP180;10210;52.284;9.892;2024-01-15T03:41:17;98477.00;;;5.90
20103;BMP180;10210;52.284;9.892;2024-01-15T03:43:43;98477.00;;;5.90
20103;BMP180;10210;52.284;9.892;2024-01-15T03:46:09;98486.00;;;5.90
20103;BMP180;10210;52.284;9.892;2024-01-15T03:48:34;98478.00;;;5.90
20103;BMP180;10210;52.284;9.892;2024-01-15T03:51:00;98478.00;;;5.90
20103;BMP180;10210;52.284;9.892;2024-01-15T03:53:26;98491.00;;;5.90
20103;BMP180;10210;52.284;9.892;2024-01-15T03:55:52;98490.00;;;5.90
20103;BMP180;10210;52.284;9.892;2024-01-15T03:58:18;98503.00;;;5.90
20103;BMP180;10210;52.284;9.892;2024-01-15T04:00:43;98502.00;;;5.90
20103;BMP180;10210;52.284;9.892;2024-01-15T04:03:09;98500.00;;;5.90
20103;BMP180;10210;52.284;9.892;2024-01-15T04:05:35;98508.00;;;5.90
20103;BMP180;10210;52.284;9.892;2024-01-15T04:08:01;98498.00;;;5.80
20103;BMP180;10210;52.284;9.892;2024-01-15T04:10:26;98489.00;;;5.80
20103;BMP180;10210;52.284;9.892;2024-01-15T04:12:52;98486.00;;;5.80
20103;BMP180;10210;52.284;9.892;2024-01-15T04:15:18;98500.00;;;5.80
20103;BMP180;10210;52.284;9.892;2024-01-15T04:17:43;98497.00;;;5.80
20103;BMP180;10210;52.284;9.892;2024-01-15T04:20:10;98500.00;;;5.80
20103;BMP180;10210;52.284;9.892;2024-01-15T04:22:36;98501.00;;;5.90
20103;BMP180;10210;52.284;9.892;2024-01-15T04:25:03;98478.00;;;5.90
20103;BMP180;10210;52.284;9.892;2024-01-15T04:27:29;98477.00;;;5.90
20103;BMP180;10210;52.284;9.892;2024-01-15T04:29:55;98489.00;;;5.90
20103;BMP180;10210;52.284;9.892;2024-01-15T04:32:20;98479.00;;;5.90
20103;BMP180;10210;52.284;9.892;2024-01-15T04:34:46;98488.00;;;5.90
20103;BMP180;10210;52.284;9.892;2024-01-15T04:37:13;98489.00;;;5.90
20103;BMP180;10210;52.284;9.892;2024-01-15T04:39:39;98478.00;;;5.90
20103;BMP180;10210;52.284;9.892;2024-01-15T04:42:04;98484.00;;;5.90
20103;BMP180;10210;52.284;9.892;2024-01-15T04:44:30;98482.00;;;5.90
20103;BMP180;10210;52.284;9.892;2024-01-15T04:46:56;98485.00;;;5.90
20103;BMP180;10210;52.284;9.892;2024-01-15T04:49:21;98482.00;;;5.90
20103;BMP180;10210;52.284;9.892;2024-01-15T04:51:48;98480.00;;;5.90
20103;BMP180;10210;52.284;9.892;2024-01-15T04:54:14;98486.00;;;5.90
20103;BMP180;10210;52.284;9.892;2024-01-15T04:56:44;98485.00;;;5.90
20103;BMP180;10210;52.284;9.892;2024-01-15T04:59:10;98496.00;;;5.90
20103;BMP180;10210;52.284;9.892;2024-01-15T05:01:36;98490.00;;;5.90
20103;BMP180;10210;52.284;9.892;2024-01-15T05:04:02;98491.00;;;5.90
20103;BMP180;10210;52.284;9.892;2024-01-15T05:06:28;98480.00;;;5.90
20103;BMP180;10210;52.284;9.892;2024-01-15T05:08:54;98494.00;;;5.90
20103;BMP180;10210;52.284;9.892;2024-01-15T05:11:20;98481.00;;;5.90
20103;BMP180;10210;52.284;9.892;2024-01-15T05:13:45;98489.00;;;5.90
20103;BMP180;10210;52.284;9.892;2024-01-15T05:16:11;98462.00;;;5.90
20103;BMP180;10210;52.284;9.892;2024-01-15T05:18:36;98487.00;;;5.90
20103;BMP180;10210;52.284;9.892;2024-01-15T05:21:03;98471.00;;;5.90
20103;BMP180;10210;52.284;9.892;2024-01-15T05:23:31;98471.00;;;5.90
20103;BMP180;10210;52.284;9.892;2024-01-15T05:25:57;98474.00;;;5.90
20103;BMP180;10210;52.284;9.892;2024-01-15T05:28:22;98477.00;;;5.90
20103;BMP180;10210;52.284;9.892;2024-01-15T05:30:49;98474.00;;;5.90
20103;BMP180;10210;52.284;9.892;2024-01-15T05:33:16;98477.00;;;5.80
20103;BMP180;10210;52.284;9.892;2024-01-15T05:35:42;98471.00;;;5.80
20103;BMP180;10210;52.284;9.892;2024-01-15T05:38:08;98472.00;;;5.80
20103;BMP180;10210;52.284;9.892;2024-01-15T05:40:34;98473.00;;;5.80
20103;BMP180;10210;52.284;9.892;2024-01-15T05:42:59;98464.00;;;5.80
20103;BMP180;10210;52.284;9.892;2024-01-15T05:45:30;98459.00;;;5.80
20103;BMP180;10210;52.284;9.892;2024-01-15T05:47:56;98476.00;;;5.80
20103;BMP180;10210;52.284;9.892;2024-01-15T05:50:22;98469.00;;;5.80
20103;BMP180;10210;52.284;9.892;2024-01-15T05:52:48;98463.00;;;5.80
20103;BMP180;10210;52.284;9.892;2024-01-15T05:55:14;98460.00;;;5.80
20103;BMP180;10210;52.284;9.892;2024-01-15T05:57:40;98453.00;;;5.80
20103;BMP180;10210;52.284;9.892;2024-01-15T06:00:06;98441.00;;;5.80
20103;BMP180;10210;52.284;9.892;2024-01-15T06:02:34;98450.00;;;5.80
20103;BMP180;10210;52.284;9.892;2024-01-15T06:04:59;98456.00;;;5.80
20103;BMP180;10210;52.284;9.892;2024-01-15T06:07:26;98460.00;;;5.80
20103;BMP180;10210;52.284;9.892;2024-01-15T06:09:52;98456.00;;;5.80
20103;BMP180;10210;52.284;9.892;2024-01-15T06:12:18;98459.00;;;5.80
20103;BMP180;10210;52.284;9.892;2024-01-15T06:14:43;98448.00;;;5.80
20103;BMP180;10210;52.284;9.892;2024-01-15T06:17:09;98458.00;;;5.80
20103;BMP180;10210;52.284;9.892;2024-01-15T06:19:34;98461.00;;;5.80
20103;BMP180;10210;52.284;9.892;2024-01-15T06:22:00;98461.00;;;5.80
20103;BMP180;10210;52.284;9.892;2024-01-15T06:24:26;98460.00;;;5.80
20103;BMP180;10210;52.284;9.892;2024-01-15T06:26:51;98464.00;;;5.80
20103;BMP180;10210;52.284;9.892;2024-01-15T06:29:17;98467.00;;;5.80
20103;BMP180;10210;52.284;9.892;2024-01-15T06:31:43;98486.00;;;5.80
20103;BMP180;10210;52.284;9.892;2024-01-15T06:34:08;98477.00;;;5.80
20103;BMP180;10210;52.284;9.892;2024-01-15T06:36:34;98471.00;;;5.80
20103;BMP180;10210;52.284;9.892;2024-01-15T06:39:00;98474.00;;;5.80
20103;BMP180;10210;52.284;9.892;2024-01-15T06:41:26;98462.00;;;6.00
20103;BMP180;10210;52.284;9.892;2024-01-15T06:43:51;98476.00;;;5.90
20103;BMP180;10210;52.284;9.892;2024-01-15T06:46:22;98481.00;;;5.90
20103;BMP180;10210;52.284;9.892;2024-01-15T06:48:48;98479.00;;;5.80
20103;BMP180;10210;52.284;9.892;2024-01-15T06:51:16;98482.00;;;5.80
20103;BMP180;10210;52.284;9.892;2024-01-15T06:53:42;98477.00;;;5.80
20103;BMP180;10210;52.284;9.892;2024-01-15T06:56:09;98474.00;;;5.80
20103;BMP180;10210;52.284;9.892;2024-01-15T06:58:34;98467.00;;;5.80
20103;BMP180;10210;52.284;9.892;2024-01-15T07:01:00;98470.00;;;5.80
20103;BMP180;10210;52.284;9.892;2024-01-15T07:03:26;98474.00;;;5.80
20103;BMP180;10210;52.284;9.892;2024-01-15T07:05:52;98473.00;;;5.80
20103;BMP180;10210;52.284;9.892;2024-01-15T07:08:18;98467.00;;;5.80
20103;BMP180;10210;52.284;9.892;2024-01-15T07:10:43;98472.00;;;5.70
20103;BMP180;10210;52.284;9.892;2024-01-15T07:13:09;98477.00;;;5.80
20103;BMP180;10210;52.284;9.892;2024-01-15T07:15:34;98475.00;;;5.80
20103;BMP180;10210;52.284;9.892;2024-01-15T07:18:00;98470.00;;;5.80
20103;BMP180;10210;52.284;9.892;2024-01-15T07:20:26;98477.00;;;5.80
20103;BMP180;10210;52.284;9.892;2024-01-15T07:22:51;98477.00;;;5.80
20103;BMP180;10210;52.284;9.892;2024-01-15T07:25:17;98486.00;;;5.80
20103;BMP180;10210;52.284;9.892;2024-01-15T07:27:43;98487.00;;;5.80
20103;BMP180;10210;52.284;9.892;2024-01-15T07:30:13;98485.00;;;5.90
20103;BMP180;10210;52.284;9.892;2024-01-15T07:32:39;98487.00;;;5.80
20103;BMP180;10210;52.284;9.892;2024-01-15T07:35:06;98480.00;;;5.80
20103;BMP180;10210;52.284;9.892;2024-01-15T07:37:32;98485.00;;;5.80
20103;BMP180;10210;52.284;9.892;2024-01-15T07:39:59;98476.00;;;5.80
20103;BMP180;10210;52.284;9.892;2024-01-15T07:42:25;98485.00;;;5.80
20103;BMP180;10210;52.284;9.892;2024-01-15T07:44:50;98491.00;;;5.80
20103;BMP180;10210;52.284;9.892;2024-01-15T07:47:17;98487.00;;;5.80
20103;BMP180;10210;52.284;9.892;2024-01-15T07:49:42;98484.00;;;5.80
20103;BMP180;10210;52.284;9.892;2024-01-15T07:52:08;98492.00;;;5.80
20103;BMP180;10210;52.284;9.892;2024-01-15T07:54:34;98491.00;;;5.80
20103;BMP180;10210;52.284;9.892;2024-01-15T07:57:01;98488.00;;;5.80
20103;BMP180;10210;52.284;9.892;2024-01-15T07:59:31;98497.00;;;5.80
20103;BMP180;10210;52.284;9.892;2024-01-15T08:01:59;98496.00;;;5.80
20103;BMP180;10210;52.284;9.892;2024-01-15T08:04:25;98497.00;;;5.80
20103;BMP180;10210;52.284;9.892;2024-01-15T08:06:51;98498.00;;;5.80
20103;BMP180;10210;52.284;9.892;2024-01-15T08:09:17;98502.00;;;5.80
20103;BMP180;10210;52.284;9.892;2024-01-15T08:11:43;98498.00;;;5.80
20103;BMP180;10210;52.284;9.892;2024-01-15T08:14:10;98503.00;;;5.80
20103;BMP180;10210;52.284;9.892;2024-01-15T08:16:36;98508.00;;;5.80
20103;BMP180;10210;52.284;9.892;2024-01-15T08:19:02;98506.00;;;5.80
20103;BMP180;10210;52.284;9.892;2024-01-15T08:21:28;98509.00;;;5.70
20103;BMP180;10210;52.284;9.892;2024-01-15T08:24:01;98506.00;;;5.70
20103;BMP180;10210;52.284;9.892;2024-01-15T08:26:30;98517.00;;;5.70
20103;BMP180;10210;52.284;9.892;2024-01-15T08:28:56;98512.00;;;5.70
20103;BMP180;10210;52.284;9.892;2024-01-15T08:31:22;98520.00;;;5.70
20103;BMP180;10210;52.284;9.892;2024-01-15T08:33:48;98514.00;;;5.60
20103;BMP180;10210;52.284;9.892;2024-01-15T08:36:14;98509.00;;;5.60
20103;BMP180;10210;52.284;9.892;2024-01-15T08:38:40;98510.00;;;5.60
20103;BMP180;10210;52.284;9.892;2024-01-15T08:41:05;98511.00;;;5.60
20103;BMP180;10210;52.284;9.892;2024-01-15T08:43:31;98523.00;;;5.60
20103;BMP180;10210;52.284;9.892;2024-01-15T08:45:57;98520.00;;;5.60
20103;BMP180;10210;52.284;9.892;2024-01-15T08:48:23;98523.00;;;5.60
20103;BMP180;10210;52.284;9.892;2024-01-15T08:50:49;98507.00;;;5.60
20103;BMP180;10210;52.284;9.892;2024-01-15T08:53:15;98507.00;;;5.60
20103;BMP180;10210;52.284;9.892;2024-01-15T08:55:42;98521.00;;;5.60
20103;BMP180;10210;52.284;9.892;2024-01-15T08:58:08;98521.00;;;5.70
20103;BMP180;10210;52.284;9.892;2024-01-15T09:00:34;98522.00;;;5.70
20103;BMP180;10210;52.284;9.892;2024-01-15T09:02:59;98512.00;;;5.70
20103;BMP180;10210;52.284;9.892;2024-01-15T09:05:25;98523.00;;;5.70
20103;BMP180;10210;52.284;9.892;2024-01-15T09:07:51;98512.00;;;5.70
20103;BMP180;10210;52.284;9.892;2024-01-15T09:10:19;98520.00;;;5.70
20103;BMP180;10210;52.284;9.892;2024-01-15T09:12:45;98517.00;;;5.80
20103;BMP180;10210;52.284;9.892;2024-01-15T09:15:11;98504.00;;;5.80
20103;BMP180;10210;52.284;9.892;2024-01-15T09:17:37;98510.00;;;5.80
20103;BMP180;10210;52.284;9.892;2024-01-15T09:20:03;98516.00;;;5.80
20103;BMP180;10210;52.284;9.892;2024-01-15T09:22:32;98510.00;;;5.80
20103;BMP180;10210;52.284;9.892;2024-01-15T09:24:58;98513.00;;;5.80
20103;BMP180;10210;52.284;9.892;2024-01-15T09:27:25;98506.00;;;5.90
20103;BMP180;10210;52.284;9.892;2024-01-15T09:29:53;98516.00;;;5.90
20103;BMP180;10210;52.284;9.892;2024-01-15T09:32:19;98520.00;;;5.90
20103;BMP180;10210;52.284;9.892;2024-01-15T09:34:47;98513.00;;;5.90
20103;BMP180;10210;52.284;9.892;2024-01-15T09:37:16;98517.00;;;6.00
20103;BMP180;10210;52.284;9.892;2024-01-15T09:39:42;98526.00;;;6.00
20103;BMP180;10210;52.284;9.892;2024-01-15T09:42:08;98527.00;;;6.10
20103;BMP180;10210;52.284;9.892;2024-01-15T09:44:36;98535.00;;;6.10
20103;BMP180;10210;52.284;9.892;2024-01-15T09:47:03;98548.00;;;6.10
20103;BMP180;10210;52.284;9.892;2024-01-15T09:49:29;98544.00;;;6.20
20103;BMP180;10210;52.284;9.892;2024-01-15T09:51:57;98535.00;;;6.20
20103;BMP180;10210;52.284;9.892;2024-01-15T09:54:23;98536.00;;;6.20
20103;BMP180;10210;52.284;9.892;2024-01-15T09:56:50;98528.00;;;6.20
20103;BMP180;10210;52.284;9.892;2024-01-15T09:59:20;98538.00;;;6.20
20103;BMP180;10210;52.284;9.892;2024-01-15T10:01:46;98552.00;;;6.20
20103;BMP180;10210;52.284;9.892;2024-01-15T10:04:14;98545.00;;;6.20
20103;BMP180;10210;52.284;9.892;2024-01-15T10:06:45;98548.00;;;6.20
20103;BMP180;10210;52.284;9.892;2024-01-15T10:09:13;98554.00;;;6.20
20103;BMP180;10210;52.284;9.892;2024-01-15T10:11:42;98549.00;;;6.20
20103;BMP180;10210;52.284;9.892;2024-01-15T10:14:10;98559.00;;;6.20
20103;BMP180;10210;52.284;9.892;2024-01-15T10:16:40;98544.00;;;6.20
20103;BMP180;10210;52.284;9.892;2024-01-15T10:19:06;98549.00;;;6.10
20103;BMP180;10210;52.284;9.892;2024-01-15T10:21:33;98549.00;;;6.10
20103;BMP180;10210;52.284;9.892;2024-01-15T10:24:01;98544.00;;;6.10
20103;BMP180;10210;52.284;9.892;2024-01-15T10:26:27;98546.00;;;6.10
20103;BMP180;10210;52.284;9.892;2024-01-15T10:28:52;98548.00;;;6.10
20103;BMP180;10210;52.284;9.892;2024-01-15T10:31:18;98555.00;;;6.00
20103;BMP180;10210;52.284;9.892;2024-01-15T10:33:45;98552.00;;;6.10
20103;BMP180;10210;52.284;9.892;2024-01-15T10:36:10;98555.00;;;6.10
20103;BMP180;10210;52.284;9.892;2024-01-15T10:38:36;98548.00;;;6.10
20103;BMP180;10210;52.284;9.892;2024-01-15T10:41:02;98549.00;;;6.10
20103;BMP180;10210;52.284;9.892;2024-01-15T10:43:28;98547.00;;;6.10
20103;BMP180;10210;52.284;9.892;2024-01-15T10:45:53;98556.00;;;6.20
20103;BMP180;10210;52.284;9.892;2024-01-15T10:48:19;98558.00;;;6.20
20103;BMP180;10210;52.284;9.892;2024-01-15T10:50:47;98561.00;;;6.20
20103;BMP180;10210;52.284;9.892;2024-01-15T10:53:15;98547.00;;;6.20
20103;BMP180;10210;52.284;9.892;2024-01-15T10:55:42;98547.00;;;6.30
20103;BMP180;10210;52.284;9.892;2024-01-15T10:58:09;98549.00;;;6.30
20103;BMP180;10210;52.284;9.892;2024-01-15T11:00:36;98544.00;;;6.30
20103;BMP180;10210;52.284;9.892;2024-01-15T11:03:05;98539.00;;;6.30
20103;BMP180;10210;52.284;9.892;2024-01-15T11:05:44;98534.00;;;6.40
20103;BMP180;10210;52.284;9.892;2024-01-15T11:08:10;98530.00;;;6.40
20103;BMP180;10210;52.284;9.892;2024-01-15T11:10:45;98545.00;;;6.40
20103;BMP180;10210;52.284;9.892;2024-01-15T11:16:09;98537.00;;;6.30
20103;BMP180;10210;52.284;9.892;2024-01-15T11:19:01;98535.00;;;6.30
20103;BMP180;10210;52.284;9.892;2024-01-15T11:21:28;98534.00;;;6.40
20103;BMP180;10210;52.284;9.892;2024-01-15T11:24:02;98535.00;;;6.40
20103;BMP180;10210;52.284;9.892;2024-01-15T11:26:46;98544.00;;;6.40
20103;BMP180;10210;52.284;9.892;2024-01-15T11:31:56;98524.00;;;6.50
20103;BMP180;10210;52.284;9.892;2024-01-15T11:34:59;98527.00;;;6.50
20103;BMP180;10210;52.284;9.892;2024-01-15T11:37:29;98525.00;;;6.50
20103;BMP180;10210;52.284;9.892;2024-01-15T11:40:01;98525.00;;;6.50
20103;BMP180;10210;52.284;9.892;2024-01-15T11:42:30;98521.00;;;6.60
20103;BMP180;10210;52.284;9.892;2024-01-15T11:44:55;98534.00;;;6.60
20103;BMP180;10210;52.284;9.892;2024-01-15T11:50:21;98521.00;;;6.70
20103;BMP180;10210;52.284;9.892;2024-01-15T11:53:02;98528.00;;;6.70
20103;BMP180;10210;52.284;9.892;2024-01-15T11:55:38;98521.00;;;6.70
20103;BMP180;10210;52.284;9.892;2024-01-15T11:58:09;98523.00;;;6.60
20103;BMP180;10210;52.284;9.892;2024-01-15T12:00:48;98520.00;;;6.60
20103;BMP180;10210;52.284;9.892;2024-01-15T12:03:15;98504.00;;;6.60
20103;BMP180;10210;52.284;9.892;2024-01-15T12:05:41;98512.00;;;6.60
20103;BMP180;10210;52.284;9.892;2024-01-15T12:08:10;98510.00;;;6.60
20103;BMP180;10210;52.284;9.892;2024-01-15T12:10:40;98496.00;;;6.60
20103;BMP180;10210;52.284;9.892;2024-01-15T12:13:16;98510.00;;;6.60
20103;BMP180;10210;52.284;9.892;2024-01-15T12:15:45;98501.00;;;6.60
20103;BMP180;10210;52.284;9.892;2024-01-15T12:18:14;98504.00;;;6.60
20103;BMP180;10210;52.284;9.892;2024-01-15T12:20:41;98507.00;;;6.60
20103;BMP180;10210;52.284;9.892;2024-01-15T12:23:07;98512.00;;;6.60
20103;BMP180;10210;52.284;9.892;2024-01-15T12:25:34;98506.00;;;6.60
20103;BMP180;10210;52.284;9.892;2024-01-15T12:28:01;98512.00;;;6.60
20103;BMP180;10210;52.284;9.892;2024-01-15T12:30:28;98505.00;;;6.60
20103;BMP180;10210;52.284;9.892;2024-01-15T12:32:54;98509.00;;;6.60
20103;BMP180;10210;52.284;9.892;2024-01-15T12:35:20;98508.00;;;6.60
20103;BMP180;10210;52.284;9.892;2024-01-15T12:37:47;98506.00;;;6.60
20103;BMP180;10210;52.284;9.892;2024-01-15T12:40:18;98505.00;;;6.50
20103;BMP180;10210;52.284;9.892;2024-01-15T12:42:44;98509.00;;;6.50
20103;BMP180;10210;52.284;9.892;2024-01-15T12:45:12;98507.00;;;6.50
20103;BMP180;10210;52.284;9.892;2024-01-15T12:47:42;98513.00;;;6.60
20103;BMP180;10210;52.284;9.892;2024-01-15T12:50:12;98517.00;;;6.60
20103;BMP180;10210;52.284;9.892;2024-01-15T12:52:41;98511.00;;;6.60
20103;BMP180;10210;52.284;9.892;2024-01-15T12:55:08;98514.00;;;6.60
20103;BMP180;10210;52.284;9.892;2024-01-15T12:57:35;98509.00;;;6.60
20103;BMP180;10210;52.284;9.892;2024-01-15T13:00:06;98516.00;;;6.60
20103;BMP180;10210;52.284;9.892;2024-01-15T13:02:34;98523.00;;;6.60
20103;BMP180;10210;52.284;9.892;2024-01-15T13:05:00;98523.00;;;6.50
20103;BMP180;10210;52.284;9.892;2024-01-15T13:07:26;98515.00;;;6.60
20103;BMP180;10210;52.284;9.892;2024-01-15T13:09:51;98526.00;;;6.60
20103;BMP180;10210;52.284;9.892;2024-01-15T13:12:20;98526.00;;;6.60
20103;BMP180;10210;52.284;9.892;2024-01-15T13:14:46;98520.00;;;6.50
20103;BMP180;10210;52.284;9.892;2024-01-15T13:17:13;98541.00;;;6.40
20103;BMP180;10210;52.284;9.892;2024-01-15T13:19:40;98528.00;;;6.40
20103;BMP180;10210;52.284;9.892;2024-01-15T13:22:06;98523.00;;;6.40
20103;BMP180;10210;52.284;9.892;2024-01-15T13:24:35;98537.00;;;6.40
20103;BMP180;10210;52.284;9.892;2024-01-15T13:27:03;98528.00;;;6.40
20103;BMP180;10210;52.284;9.892;2024-01-15T13:29:30;98522.00;;;6.40
20103;BMP180;10210;52.284;9.892;2024-01-15T13:31:56;98528.00;;;6.40
20103;BMP180;10210;52.284;9.892;2024-01-15T13:34:22;98535.00;;;6.40
20103;BMP180;10210;52.284;9.892;2024-01-15T13:36:47;98516.00;;;6.40
20103;BMP180;10210;52.284;9.892;2024-01-15T13:39:13;98524.00;;;6.40
20103;BMP180;10210;52.284;9.892;2024-01-15T13:41:39;98519.00;;;6.30
20103;BMP180;10210;52.284;9.892;2024-01-15T13:44:04;98527.00;;;6.40
20103;BMP180;10210;52.284;9.892;2024-01-15T13:46:30;98529.00;;;6.40
20103;BMP180;10210;52.284;9.892;2024-01-15T13:48:56;98540.00;;;6.40
20103;BMP180;10210;52.284;9.892;2024-01-15T13:51:22;98530.00;;;6.30
20103;BMP180;10210;52.284;9.892;2024-01-15T13:53:50;98523.00;;;6.30
20103;BMP180;10210;52.284;9.892;2024-01-15T13:56:16;98534.00;;;6.30
20103;BMP180;10210;52.284;9.892;2024-01-15T13:58:42;98528.00;;;6.30
20103;BMP180;10210;52.284;9.892;2024-01-15T14:01:08;98542.00;;;6.30
20103;BMP180;10210;52.284;9.892;2024-01-15T14:03:34;98541.00;;;6.30
20103;BMP180;10210;52.284;9.892;2024-01-15T14:06:01;98546.00;;;6.30
20103;BMP180;10210;52.284;9.892;2024-01-15T14:08:29;98538.00;;;6.30
20103;BMP180;10210;52.284;9.892;2024-01-15T14:10:54;98530.00;;;6.30
20103;BMP180;10210;52.284;9.892;2024-01-15T14:13:22;98538.00;;;6.30
20103;BMP180;10210;52.284;9.892;2024-01-15T14:15:48;98543.00;;;6.30
20103;BMP180;10210;52.284;9.892;2024-01-15T14:18:16;98559.00;;;6.20
20103;BMP180;10210;52.284;9.892;2024-01-15T14:20:42;98539.00;;;6.20
20103;BMP180;10210;52.284;9.892;2024-01-15T14:23:09;98544.00;;;6.20
20103;BMP180;10210;52.284;9.892;2024-01-15T14:25:34;98541.00;;;6.20
20103;BMP180;10210;52.284;9.892;2024-01-15T14:28:00;98542.00;;;6.10